sensor_id;sensor_type;location;lat;lon;timestamp;P1;durP1;ratioP1;P2;durP2;ratioP2
46505;SDS011;32220;49.808;9.968;2022-08-05T00:00:29;2.27;;;1.83;;
46505;SDS011;32220;49.808;9.968;2022-08-05T00:02:58;2.90;;;1.80;;
46505;SDS011;32220;49.808;9.968;2022-08-05T00:05:25;3.27;;;2.23;;
46505;SDS011;32220;49.808;9.968;2022-08-05T00:07:54;2.83;;;2.07;;
46505;SDS011;32220;49.808;9.968;2022-08-05T00:10:21;2.13;;;1.93;;
46505;SDS011;32220;49.808;9.968;2022-08-05T00:12:50;2.33;;;2.13;;
46505;SDS011;32220;49.808;9.968;2022-08-05T00:15:18;3.30;;;2.13;;
46505;SDS011;32220;49.808;9.968;2022-08-05T00:17:46;1.80;;;1.70;;
46505;SDS011;32220;49.808;9.968;2022-08-05T00:20:15;2.37;;;2.00;;
46505;SDS011;32220;49.808;9.968;2022-08-05T00:22:43;2.40;;;2.17;;
46505;SDS011;32220;49.808;9.968;2022-08-05T00:25:10;1.80;;;1.70;;
46505;SDS011;32220;49.808;9.968;2022-08-05T00:27:38;2.10;;;1.70;;
46505;SDS011;32220;49.808;9.968;2022-08-05T00:30:05;1.93;;;1.73;;
46505;SDS011;32220;49.808;9.968;2022-08-05T00:32:34;2.53;;;1.80;;
46505;SDS011;32220;49.808;9.968;2022-08-05T00:35:02;2.47;;;2.27;;
46505;SDS011;32220;49.808;9.968;2022-08-05T00:37:31;2.17;;;2.07;;
46505;SDS011;32220;49.808;9.968;2022-08-05T00:39:59;2.70;;;2.03;;
46505;SDS011;32220;49.808;9.968;2022-08-05T00:42:30;2.20;;;2.00;;
46505;SDS011;32220;49.808;9.968;2022-08-05T00:44:59;2.13;;;2.00;;
46505;SDS011;32220;49.808;9.968;2022-08-05T00:47:27;1.87;;;1.60;;
46505;SDS011;32220;49.808;9.968;2022-08-05T00:49:55;2.10;;;1.90;;
46505;SDS011;32220;49.808;9.968;2022-08-05T00:52:22;2.20;;;2.00;;
46505;SDS011;32220;49.808;9.968;2022-08-05T00:54:52;1.80;;;1.70;;
46505;SDS011;32220;49.808;9.968;2022-08-05T00:57:19;1.67;;;1.57;;
46505;SDS011;32220;49.808;9.968;2022-08-05T00:59:47;1.63;;;1.53;;
46505;SDS011;32220;49.808;9.968;2022-08-05T01:02:15;1.93;;;1.60;;
46505;SDS011;32220;49.808;9.968;2022-08-05T01:04:43;2.20;;;2.00;;
46505;SDS011;32220;49.808;9.968;2022-08-05T01:07:11;1.93;;;1.83;;
46505;SDS011;32220;49.808;9.968;2022-08-05T01:09:38;2.50;;;2.30;;
46505;SDS011;32220;49.808;9.968;2022-08-05T01:12:10;2.50;;;2.30;;
46505;SDS011;32220;49.808;9.968;2022-08-05T01:14:40;2.40;;;2.20;;
46505;SDS011;32220;49.808;9.968;2022-08-05T01:17:16;2.83;;;2.17;;
46505;SDS011;32220;49.808;9.968;2022-08-05T01:20:00;2.60;;;2.20;;
46505;SDS011;32220;49.808;9.968;2022-08-05T01:22:41;2.87;;;2.07;;
46505;SDS011;32220;49.808;9.968;2022-08-05T01:28:42;2.53;;;2.03;;
46505;SDS011;32220;49.808;9.968;2022-08-05T01:31:14;1.70;;;1.60;;
46505;SDS011;32220;49.808;9.968;2022-08-05T01:33:50;3.13;;;2.50;;
46505;SDS011;32220;49.808;9.968;2022-08-05T01:36:23;2.83;;;2.50;;
46505;SDS011;32220;49.808;9.968;2022-08-05T01:38:54;2.30;;;2.10;;
46505;SDS011;32220;49.808;9.968;2022-08-05T01:41:23;2.60;;;2.40;;
46505;SDS011;32220;49.808;9.968;2022-08-05T01:43:52;2.70;;;2.40;;
46505;SDS011;32220;49.808;9.968;2022-08-05T01:46:22;2.50;;;2.30;;
46505;SDS011;32220;49.808;9.968;2022-08-05T01:48:50;1.90;;;1.80;;
46505;SDS011;32220;49.808;9.968;2022-08-05T01:51:21;2.13;;;1.93;;
46505;SDS011;32220;49.808;9.968;2022-08-05T01:53:50;2.03;;;1.93;;
46505;SDS011;32220;49.808;9.968;2022-08-05T01:56:20;2.07;;;1.87;;
46505;SDS011;32220;49.808;9.968;2022-08-05T01:58:50;2.33;;;2.13;;
46505;SDS011;32220;49.808;9.968;2022-08-05T02:01:22;2.20;;;2.00;;
46505;SDS011;32220;49.808;9.968;2022-08-05T02:03:53;2.10;;;1.90;;
46505;SDS011;32220;49.808;9.968;2022-08-05T02:06:22;3.17;;;2.00;;
46505;SDS011;32220;49.808;9.968;2022-08-05T02:08:51;1.93;;;1.77;;
46505;SDS011;32220;49.808;9.968;2022-08-05T02:11:19;2.43;;;2.23;;
46505;SDS011;32220;49.808;9.968;2022-08-05T02:13:50;2.40;;;2.20;;
46505;SDS011;32220;49.808;9.968;2022-08-05T02:16:24;2.10;;;1.90;;
46505;SDS011;32220;49.808;9.968;2022-08-05T02:18:55;2.23;;;2.03;;
46505;SDS011;32220;49.808;9.968;2022-08-05T02:21:27;2.30;;;2.10;;
46505;SDS011;32220;49.808;9.968;2022-08-05T02:24:03;2.87;;;2.20;;
46505;SDS011;32220;49.808;9.968;2022-08-05T02:26:37;2.10;;;1.90;;
46505;SDS011;32220;49.808;9.968;2022-08-05T02:29:09;3.97;;;2.60;;
46505;SDS011;32220;49.808;9.968;2022-08-05T02:31:42;3.17;;;2.17;;
46505;SDS011;32220;49.808;9.968;2022-08-05T02:34:12;3.73;;;1.93;;
46505;SDS011;32220;49.808;9.968;2022-08-05T02:36:47;2.60;;;2.40;;
46505;SDS011;32220;49.808;9.968;2022-08-05T02:39:17;2.50;;;1.93;;
46505;SDS011;32220;49.808;9.968;2022-08-05T02:41:46;3.10;;;2.47;;
46505;SDS011;32220;49.808;9.968;2022-08-05T02:44:16;2.73;;;2.07;;
46505;SDS011;32220;49.808;9.968;2022-08-05T02:46:46;2.70;;;2.20;;
46505;SDS011;32220;49.808;9.968;2022-08-05T02:49:15;3.43;;;2.23;;
46505;SDS011;32220;49.808;9.968;2022-08-05T02:51:43;2.83;;;2.30;;
46505;SDS011;32220;49.808;9.968;2022-08-05T02:54:12;3.13;;;2.40;;
46505;SDS011;32220;49.808;9.968;2022-08-05T02:56:41;2.50;;;2.30;;
46505;SDS011;32220;49.808;9.968;2022-08-05T02:59:10;3.93;;;2.20;;
46505;SDS011;32220;49.808;9.968;2022-08-05T03:01:40;2.87;;;2.13;;
46505;SDS011;32220;49.808;9.968;2022-08-05T03:04:10;2.73;;;2.17;;
46505;SDS011;32220;49.808;9.968;2022-08-05T03:06:40;4.20;;;2.30;;
46505;SDS011;32220;49.808;9.968;2022-08-05T03:09:10;3.80;;;2.40;;
46505;SDS011;32220;49.808;9.968;2022-08-05T03:11:40;2.73;;;2.23;;
46505;SDS011;32220;49.808;9.968;2022-08-05T03:14:08;3.47;;;2.30;;
46505;SDS011;32220;49.808;9.968;2022-08-05T03:16:36;3.97;;;2.70;;
46505;SDS011;32220;49.808;9.968;2022-08-05T03:19:06;4.47;;;2.27;;
46505;SDS011;32220;49.808;9.968;2022-08-05T03:21:34;4.07;;;2.67;;
46505;SDS011;32220;49.808;9.968;2022-08-05T03:24:01;2.27;;;1.93;;
46505;SDS011;32220;49.808;9.968;2022-08-05T03:26:30;4.67;;;2.77;;
46505;SDS011;32220;49.808;9.968;2022-08-05T03:28:58;4.13;;;2.40;;
46505;SDS011;32220;49.808;9.968;2022-08-05T03:31:25;2.73;;;2.50;;
46505;SDS011;32220;49.808;9.968;2022-08-05T03:33:55;6.20;;;2.23;;
46505;SDS011;32220;49.808;9.968;2022-08-05T03:36:25;4.20;;;2.83;;
46505;SDS011;32220;49.808;9.968;2022-08-05T03:38:54;2.50;;;2.13;;
46505;SDS011;32220;49.808;9.968;2022-08-05T03:41:21;3.23;;;2.30;;
46505;SDS011;32220;49.808;9.968;2022-08-05T03:43:49;3.20;;;2.03;;
46505;SDS011;32220;49.808;9.968;2022-08-05T03:46:17;4.77;;;2.10;;
46505;SDS011;32220;49.808;9.968;2022-08-05T03:48:44;2.57;;;2.37;;
46505;SDS011;32220;49.808;9.968;2022-08-05T03:51:15;2.90;;;2.50;;
46505;SDS011;32220;49.808;9.968;2022-08-05T03:53:49;2.57;;;2.37;;
46505;SDS011;32220;49.808;9.968;2022-08-05T03:56:23;2.83;;;2.20;;
46505;SDS011;32220;49.808;9.968;2022-08-05T03:58:56;2.43;;;2.23;;
46505;SDS011;32220;49.808;9.968;2022-08-05T04:01:27;3.57;;;2.37;;
46505;SDS011;32220;49.808;9.968;2022-08-05T04:03:58;2.97;;;1.97;;
46505;SDS011;32220;49.808;9.968;2022-08-05T04:06:26;4.13;;;2.20;;
46505;SDS011;32220;49.808;9.968;2022-08-05T04:08:56;2.30;;;2.10;;
46505;SDS011;32220;49.808;9.968;2022-08-05T04:11:24;2.93;;;2.30;;
46505;SDS011;32220;49.808;9.968;2022-08-05T04:13:52;2.30;;;2.10;;
46505;SDS011;32220;49.808;9.968;2022-08-05T04:16:21;2.87;;;1.80;;
46505;SDS011;32220;49.808;9.968;2022-08-05T04:18:49;2.47;;;1.90;;
46505;SDS011;32220;49.808;9.968;2022-08-05T04:21:17;2.20;;;2.00;;
46505;SDS011;32220;49.808;9.968;2022-08-05T04:23:45;2.03;;;1.90;;
46505;SDS011;32220;49.808;9.968;2022-08-05T04:26:14;3.00;;;1.80;;
46505;SDS011;32220;49.808;9.968;2022-08-05T04:28:42;2.57;;;2.20;;
46505;SDS011;32220;49.808;9.968;2022-08-05T04:31:10;2.33;;;1.70;;
46505;SDS011;32220;49.808;9.968;2022-08-05T04:33:38;2.30;;;1.90;;
46505;SDS011;32220;49.808;9.968;2022-08-05T04:36:06;2.53;;;1.77;;
46505;SDS011;32220;49.808;9.968;2022-08-05T04:38:35;2.70;;;2.30;;
46505;SDS011;32220;49.808;9.968;2022-08-05T04:41:03;5.53;;;2.40;;
46505;SDS011;32220;49.808;9.968;2022-08-05T04:43:32;3.07;;;1.97;;
46505;SDS011;32220;49.808;9.968;2022-08-05T04:46:00;2.77;;;2.40;;
46505;SDS011;32220;49.808;9.968;2022-08-05T04:48:29;3.90;;;2.33;;
46505;SDS011;32220;49.808;9.968;2022-08-05T04:50:57;2.90;;;2.60;;
46505;SDS011;32220;49.808;9.968;2022-08-05T04:53:26;3.87;;;2.63;;
46505;SDS011;32220;49.808;9.968;2022-08-05T04:55:54;2.60;;;2.20;;
46505;SDS011;32220;49.808;9.968;2022-08-05T04:58:22;1.93;;;1.70;;
46505;SDS011;32220;49.808;9.968;2022-08-05T05:00:51;3.00;;;2.30;;
46505;SDS011;32220;49.808;9.968;2022-08-05T05:03:19;2.50;;;2.13;;
46505;SDS011;32220;49.808;9.968;2022-08-05T05:05:47;3.50;;;2.27;;
46505;SDS011;32220;49.808;9.968;2022-08-05T05:08:14;4.77;;;2.40;;
46505;SDS011;32220;49.808;9.968;2022-08-05T05:10:42;3.17;;;2.87;;
46505;SDS011;32220;49.808;9.968;2022-08-05T05:13:13;2.67;;;2.20;;
46505;SDS011;32220;49.808;9.968;2022-08-05T05:15:43;3.57;;;2.30;;
46505;SDS011;32220;49.808;9.968;2022-08-05T05:18:13;2.80;;;2.27;;
46505;SDS011;32220;49.808;9.968;2022-08-05T05:20:42;2.47;;;2.27;;
46505;SDS011;32220;49.808;9.968;2022-08-05T05:23:10;2.13;;;2.00;;
46505;SDS011;32220;49.808;9.968;2022-08-05T05:25:39;2.93;;;2.60;;
46505;SDS011;32220;49.808;9.968;2022-08-05T05:28:07;2.40;;;2.20;;
46505;SDS011;32220;49.808;9.968;2022-08-05T05:30:35;2.77;;;1.90;;
46505;SDS011;32220;49.808;9.968;2022-08-05T05:33:03;5.47;;;2.20;;
46505;SDS011;32220;49.808;9.968;2022-08-05T05:35:34;2.47;;;2.03;;
46505;SDS011;32220;49.808;9.968;2022-08-05T05:38:02;2.70;;;2.10;;
46505;SDS011;32220;49.808;9.968;2022-08-05T05:40:31;3.10;;;2.33;;
46505;SDS011;32220;49.808;9.968;2022-08-05T05:43:00;2.93;;;2.07;;
46505;SDS011;32220;49.808;9.968;2022-08-05T05:45:28;2.10;;;1.90;;
46505;SDS011;32220;49.808;9.968;2022-08-05T05:47:56;2.47;;;1.80;;
46505;SDS011;32220;49.808;9.968;2022-08-05T05:50:24;2.70;;;2.03;;
46505;SDS011;32220;49.808;9.968;2022-08-05T05:52:54;2.13;;;1.93;;
46505;SDS011;32220;49.808;9.968;2022-08-05T05:55:21;2.87;;;2.00;;
46505;SDS011;32220;49.808;9.968;2022-08-05T05:57:49;2.13;;;1.57;;
46505;SDS011;32220;49.808;9.968;2022-08-05T06:00:18;1.87;;;1.77;;
46505;SDS011;32220;49.808;9.968;2022-08-05T06:02:47;1.70;;;1.60;;
46505;SDS011;32220;49.808;9.968;2022-08-05T06:05:15;2.37;;;1.57;;
46505;SDS011;32220;49.808;9.968;2022-08-05T06:07:43;2.20;;;1.70;;
46505;SDS011;32220;49.808;9.968;2022-08-05T06:10:13;2.27;;;1.77;;
46505;SDS011;32220;49.808;9.968;2022-08-05T06:12:41;2.60;;;1.80;;
46505;SDS011;32220;49.808;9.968;2022-08-05T06:15:09;2.20;;;1.90;;
46505;SDS011;32220;49.808;9.968;2022-08-05T06:17:38;1.40;;;1.30;;
46505;SDS011;32220;49.808;9.968;2022-08-05T06:20:06;2.40;;;1.80;;
46505;SDS011;32220;49.808;9.968;2022-08-05T06:22:34;1.80;;;1.70;;
46505;SDS011;32220;49.808;9.968;2022-08-05T06:25:03;1.50;;;1.40;;
46505;SDS011;32220;49.808;9.968;2022-08-05T06:27:34;1.93;;;1.80;;
46505;SDS011;32220;49.808;9.968;2022-08-05T06:30:02;1.93;;;1.83;;
46505;SDS011;32220;49.808;9.968;2022-08-05T06:32:30;1.67;;;1.57;;
46505;SDS011;32220;49.808;9.968;2022-08-05T06:34:58;2.60;;;1.50;;
46505;SDS011;32220;49.808;9.968;2022-08-05T06:37:26;1.50;;;1.40;;
46505;SDS011;32220;49.808;9.968;2022-08-05T06:39:54;3.30;;;2.13;;
46505;SDS011;32220;49.808;9.968;2022-08-05T06:42:22;2.03;;;1.60;;
46505;SDS011;32220;49.808;9.968;2022-08-05T06:44:51;2.20;;;2.00;;
46505;SDS011;32220;49.808;9.968;2022-08-05T06:47:19;2.50;;;1.67;;
46505;SDS011;32220;49.808;9.968;2022-08-05T06:49:46;1.90;;;1.60;;
46505;SDS011;32220;49.808;9.968;2022-08-05T06:52:14;1.97;;;1.77;;
46505;SDS011;32220;49.808;9.968;2022-08-05T06:54:42;1.93;;;1.73;;
46505;SDS011;32220;49.808;9.968;2022-08-05T06:57:10;2.90;;;1.70;;
46505;SDS011;32220;49.808;9.968;2022-08-05T06:59:40;1.83;;;1.73;;
46505;SDS011;32220;49.808;9.968;2022-08-05T07:02:09;2.20;;;2.00;;
46505;SDS011;32220;49.808;9.968;2022-08-05T07:04:39;1.60;;;1.50;;
46505;SDS011;32220;49.808;9.968;2022-08-05T07:07:07;2.13;;;1.90;;
46505;SDS011;32220;49.808;9.968;2022-08-05T07:09:35;1.77;;;1.67;;
46505;SDS011;32220;49.808;9.968;2022-08-05T07:12:03;1.87;;;1.73;;
46505;SDS011;32220;49.808;9.968;2022-08-05T07:14:31;1.93;;;1.83;;
46505;SDS011;32220;49.808;9.968;2022-08-05T07:17:17;2.10;;;1.90;;
46505;SDS011;32220;49.808;9.968;2022-08-05T07:19:45;1.97;;;1.87;;
46505;SDS011;32220;49.808;9.968;2022-08-05T07:22:13;1.70;;;1.60;;
46505;SDS011;32220;49.808;9.968;2022-08-05T07:24:40;1.93;;;1.70;;
46505;SDS011;32220;49.808;9.968;2022-08-05T07:27:08;1.83;;;1.50;;
46505;SDS011;32220;49.808;9.968;2022-08-05T07:29:36;3.77;;;2.00;;
46505;SDS011;32220;49.808;9.968;2022-08-05T07:32:04;1.70;;;1.60;;
46505;SDS011;32220;49.808;9.968;2022-08-05T07:34:34;2.53;;;2.33;;
46505;SDS011;32220;49.808;9.968;2022-08-05T07:37:02;1.87;;;1.77;;
46505;SDS011;32220;49.808;9.968;2022-08-05T07:39:30;1.80;;;1.70;;
46505;SDS011;32220;49.808;9.968;2022-08-05T07:41:59;2.27;;;1.90;;
46505;SDS011;32220;49.808;9.968;2022-08-05T07:44:27;1.63;;;1.50;;
46505;SDS011;32220;49.808;9.968;2022-08-05T07:46:54;1.80;;;1.70;;
46505;SDS011;32220;49.808;9.968;2022-08-05T07:49:22;2.40;;;2.00;;
46505;SDS011;32220;49.808;9.968;2022-08-05T07:51:51;1.77;;;1.67;;
46505;SDS011;32220;49.808;9.968;2022-08-05T07:54:19;2.13;;;1.80;;
46505;SDS011;32220;49.808;9.968;2022-08-05T07:56:48;2.40;;;2.00;;
46505;SDS011;32220;49.808;9.968;2022-08-05T07:59:16;3.70;;;2.20;;
46505;SDS011;32220;49.808;9.968;2022-08-05T08:01:43;2.00;;;1.80;;
46505;SDS011;32220;49.808;9.968;2022-08-05T08:04:11;2.40;;;1.73;;
46505;SDS011;32220;49.808;9.968;2022-08-05T08:06:39;1.90;;;1.80;;
46505;SDS011;32220;49.808;9.968;2022-08-05T08:09:08;2.33;;;2.00;;
46505;SDS011;32220;49.808;9.968;2022-08-05T08:11:36;1.87;;;1.77;;
46505;SDS011;32220;49.808;9.968;2022-08-05T08:14:04;3.07;;;1.90;;
46505;SDS011;32220;49.808;9.968;2022-08-05T08:16:31;4.43;;;2.20;;
46505;SDS011;32220;49.808;9.968;2022-08-05T08:18:59;4.47;;;2.37;;
46505;SDS011;32220;49.808;9.968;2022-08-05T08:21:27;1.57;;;1.47;;
46505;SDS011;32220;49.808;9.968;2022-08-05T08:23:55;2.73;;;2.50;;
46505;SDS011;32220;49.808;9.968;2022-08-05T08:26:24;2.23;;;1.83;;
46505;SDS011;32220;49.808;9.968;2022-08-05T08:28:52;1.93;;;1.83;;
46505;SDS011;32220;49.808;9.968;2022-08-05T08:31:20;1.70;;;1.60;;
46505;SDS011;32220;49.808;9.968;2022-08-05T08:33:48;1.90;;;1.80;;
46505;SDS011;32220;49.808;9.968;2022-08-05T08:36:16;2.60;;;2.23;;
46505;SDS011;32220;49.808;9.968;2022-08-05T08:38:44;1.87;;;1.70;;
46505;SDS011;32220;49.808;9.968;2022-08-05T08:41:12;1.87;;;1.60;;
46505;SDS011;32220;49.808;9.968;2022-08-05T08:43:43;3.33;;;2.03;;
46505;SDS011;32220;49.808;9.968;2022-08-05T08:46:13;2.43;;;1.90;;
46505;SDS011;32220;49.808;9.968;2022-08-05T08:48:41;1.87;;;1.77;;
46505;SDS011;32220;49.808;9.968;2022-08-05T08:51:13;2.20;;;2.00;;
46505;SDS011;32220;49.808;9.968;2022-08-05T08:53:44;2.20;;;1.90;;
46505;SDS011;32220;49.808;9.968;2022-08-05T08:56:11;2.22;;;2.08;;
46505;SDS011;32220;49.808;9.968;2022-08-05T08:58:39;1.67;;;1.58;;
46505;SDS011;32220;49.808;9.968;2022-08-05T09:01:09;2.05;;;1.80;;
46505;SDS011;32220;49.808;9.968;2022-08-05T09:03:37;2.58;;;2.05;;
46505;SDS011;32220;49.808;9.968;2022-08-05T09:06:07;2.17;;;1.92;;
46505;SDS011;32220;49.808;9.968;2022-08-05T09:08:34;2.13;;;1.95;;
46505;SDS011;32220;49.808;9.968;2022-08-05T09:11:02;2.10;;;1.90;;
46505;SDS011;32220;49.808;9.968;2022-08-05T09:13:30;2.08;;;1.92;;
46505;SDS011;32220;49.808;9.968;2022-08-05T09:16:00;2.85;;;1.70;;
46505;SDS011;32220;49.808;9.968;2022-08-05T09:18:29;2.83;;;1.85;;
46505;SDS011;32220;49.808;9.968;2022-08-05T09:20:57;2.03;;;1.90;;
46505;SDS011;32220;49.808;9.968;2022-08-05T09:23:25;2.47;;;1.75;;
46505;SDS011;32220;49.808;9.968;2022-08-05T09:26:04;2.53;;;1.90;;
46505;SDS011;32220;49.808;9.968;2022-08-05T09:28:33;1.77;;;1.67;;
46505;SDS011;32220;49.808;9.968;2022-08-05T09:31:03;3.92;;;2.10;;
46505;SDS011;32220;49.808;9.968;2022-08-05T09:33:45;2.05;;;1.88;;
46505;SDS011;32220;49.808;9.968;2022-08-05T09:36:13;2.60;;;1.92;;
46505;SDS011;32220;49.808;9.968;2022-08-05T09:38:53;2.25;;;1.98;;
46505;SDS011;32220;49.808;9.968;2022-08-05T09:41:22;1.80;;;1.70;;
46505;SDS011;32220;49.808;9.968;2022-08-05T09:43:50;2.00;;;1.90;;
46505;SDS011;32220;49.808;9.968;2022-08-05T09:46:25;1.77;;;1.67;;
46505;SDS011;32220;49.808;9.968;2022-08-05T09:48:57;2.05;;;1.85;;
46505;SDS011;32220;49.808;9.968;2022-08-05T09:51:30;2.00;;;1.90;;
46505;SDS011;32220;49.808;9.968;2022-08-05T09:53:59;2.50;;;2.03;;
46505;SDS011;32220;49.808;9.968;2022-08-05T09:56:30;3.17;;;2.20;;
46505;SDS011;32220;49.808;9.968;2022-08-05T09:59:00;1.90;;;1.80;;
46505;SDS011;32220;49.808;9.968;2022-08-05T10:01:30;2.33;;;2.15;;
46505;SDS011;32220;49.808;9.968;2022-08-05T10:04:02;2.25;;;2.15;;
46505;SDS011;32220;49.808;9.968;2022-08-05T10:06:31;1.83;;;1.58;;
46505;SDS011;32220;49.808;9.968;2022-08-05T10:09:10;2.03;;;1.92;;
46505;SDS011;32220;49.808;9.968;2022-08-05T10:11:39;1.70;;;1.60;;
46505;SDS011;32220;49.808;9.968;2022-08-05T10:14:19;1.88;;;1.77;;
46505;SDS011;32220;49.808;9.968;2022-08-05T10:16:48;1.77;;;1.67;;
46505;SDS011;32220;49.808;9.968;2022-08-05T10:19:18;1.70;;;1.60;;
46505;SDS011;32220;49.808;9.968;2022-08-05T10:21:46;2.00;;;1.90;;
46505;SDS011;32220;49.808;9.968;2022-08-05T10:24:14;2.03;;;1.93;;
46505;SDS011;32220;49.808;9.968;2022-08-05T10:26:44;1.70;;;1.60;;
46505;SDS011;32220;49.808;9.968;2022-08-05T10:29:14;3.83;;;1.63;;
46505;SDS011;32220;49.808;9.968;2022-08-05T10:31:42;2.23;;;2.13;;
46505;SDS011;32220;49.808;9.968;2022-08-05T10:34:10;1.80;;;1.70;;
46505;SDS011;32220;49.808;9.968;2022-08-05T10:36:39;1.73;;;1.63;;
46505;SDS011;32220;49.808;9.968;2022-08-05T10:39:09;1.48;;;1.38;;
46505;SDS011;32220;49.808;9.968;2022-08-05T10:41:42;1.90;;;1.75;;
46505;SDS011;32220;49.808;9.968;2022-08-05T10:44:18;1.88;;;1.58;;
46505;SDS011;32220;49.808;9.968;2022-08-05T10:46:49;3.03;;;1.70;;
46505;SDS011;32220;49.808;9.968;2022-08-05T10:49:17;1.85;;;1.75;;
46505;SDS011;32220;49.808;9.968;2022-08-05T10:51:48;2.00;;;1.80;;
46505;SDS011;32220;49.808;9.968;2022-08-05T10:54:23;1.83;;;1.73;;
46505;SDS011;32220;49.808;9.968;2022-08-05T10:56:52;2.05;;;1.85;;
46505;SDS011;32220;49.808;9.968;2022-08-05T10:59:24;1.77;;;1.67;;
46505;SDS011;32220;49.808;9.968;2022-08-05T11:02:05;2.00;;;1.58;;
46505;SDS011;32220;49.808;9.968;2022-08-05T11:04:41;1.75;;;1.65;;
46505;SDS011;32220;49.808;9.968;2022-08-05T11:07:11;1.80;;;1.70;;
46505;SDS011;32220;49.808;9.968;2022-08-05T11:09:44;1.88;;;1.50;;
46505;SDS011;32220;49.808;9.968;2022-08-05T11:15:17;2.22;;;1.80;;
46505;SDS011;32220;49.808;9.968;2022-08-05T11:17:46;1.60;;;1.50;;
46505;SDS011;32220;49.808;9.968;2022-08-05T11:20:33;1.50;;;1.40;;
46505;SDS011;32220;49.808;9.968;2022-08-05T11:26:02;1.77;;;1.67;;
46505;SDS011;32220;49.808;9.968;2022-08-05T11:28:42;1.50;;;1.40;;
46505;SDS011;32220;49.808;9.968;2022-08-05T11:31:24;1.67;;;1.42;;
46505;SDS011;32220;49.808;9.968;2022-08-05T11:34:00;2.00;;;1.90;;
46505;SDS011;32220;49.808;9.968;2022-08-05T11:36:46;1.92;;;1.75;;
46505;SDS011;32220;49.808;9.968;2022-08-05T11:42:25;1.80;;;1.70;;
46505;SDS011;32220;49.808;9.968;2022-08-05T11:44:54;1.90;;;1.60;;
46505;SDS011;32220;49.808;9.968;2022-08-05T11:47:28;2.30;;;2.00;;
46505;SDS011;32220;49.808;9.968;2022-08-05T11:49:58;1.80;;;1.70;;
46505;SDS011;32220;49.808;9.968;2022-08-05T11:52:27;1.55;;;1.45;;
46505;SDS011;32220;49.808;9.968;2022-08-05T11:54:57;1.38;;;1.38;;
46505;SDS011;32220;49.808;9.968;2022-08-05T11:57:28;1.17;;;1.17;;
46505;SDS011;32220;49.808;9.968;2022-08-05T11:59:57;2.55;;;1.60;;
46505;SDS011;32220;49.808;9.968;2022-08-05T12:02:26;1.83;;;1.25;;
46505;SDS011;32220;49.808;9.968;2022-08-05T12:04:57;1.40;;;1.30;;
46505;SDS011;32220;49.808;9.968;2022-08-05T12:07:25;1.15;;;1.10;;
46505;SDS011;32220;49.808;9.968;2022-08-05T12:09:53;2.08;;;1.30;;
46505;SDS011;32220;49.808;9.968;2022-08-05T12:12:24;1.25;;;1.20;;
46505;SDS011;32220;49.808;9.968;2022-08-05T12:14:54;1.50;;;1.40;;
46505;SDS011;32220;49.808;9.968;2022-08-05T12:17:22;1.35;;;1.13;;
46505;SDS011;32220;49.808;9.968;2022-08-05T12:19:53;1.75;;;1.30;;
46505;SDS011;32220;49.808;9.968;2022-08-05T12:22:25;1.17;;;1.10;;
46505;SDS011;32220;49.808;9.968;2022-08-05T12:24:54;1.30;;;1.20;;
46505;SDS011;32220;49.808;9.968;2022-08-05T12:27:23;2.00;;;1.58;;
46505;SDS011;32220;49.808;9.968;2022-08-05T12:29:57;1.48;;;1.38;;
46505;SDS011;32220;49.808;9.968;2022-08-05T12:32:26;1.38;;;1.23;;
46505;SDS011;32220;49.808;9.968;2022-08-05T12:34:54;1.33;;;1.33;;
46505;SDS011;32220;49.808;9.968;2022-08-05T12:37:22;2.95;;;1.13;;
46505;SDS011;32220;49.808;9.968;2022-08-05T12:39:50;1.55;;;1.45;;
46505;SDS011;32220;49.808;9.968;2022-08-05T12:42:19;3.03;;;1.60;;
46505;SDS011;32220;49.808;9.968;2022-08-05T12:44:48;1.55;;;1.45;;
46505;SDS011;32220;49.808;9.968;2022-08-05T12:47:25;1.35;;;1.27;;
46505;SDS011;32220;49.808;9.968;2022-08-05T12:49:54;1.48;;;1.38;;
46505;SDS011;32220;49.808;9.968;2022-08-05T12:52:22;1.50;;;1.40;;
46505;SDS011;32220;49.808;9.968;2022-08-05T12:54:50;1.52;;;1.42;;
46505;SDS011;32220;49.808;9.968;2022-08-05T12:57:17;2.42;;;1.55;;
46505;SDS011;32220;49.808;9.968;2022-08-05T12:59:46;1.33;;;1.23;;
46505;SDS011;32220;49.808;9.968;2022-08-05T13:02:18;1.80;;;1.70;;
46505;SDS011;32220;49.808;9.968;2022-08-05T13:04:47;1.63;;;1.52;;
46505;SDS011;32220;49.808;9.968;2022-08-05T13:07:18;1.20;;;1.20;;
46505;SDS011;32220;49.808;9.968;2022-08-05T13:09:49;1.58;;;1.48;;
46505;SDS011;32220;49.808;9.968;2022-08-05T13:12:19;2.13;;;1.60;;
46505;SDS011;32220;49.808;9.968;2022-08-05T13:14:50;1.40;;;1.30;;
46505;SDS011;32220;49.808;9.968;2022-08-05T13:17:20;1.10;;;1.10;;
46505;SDS011;32220;49.808;9.968;2022-08-05T13:19:59;1.85;;;1.55;;
46505;SDS011;32220;49.808;9.968;2022-08-05T13:22:29;1.70;;;1.60;;
46505;SDS011;32220;49.808;9.968;2022-08-05T13:24:58;1.50;;;1.40;;
46505;SDS011;32220;49.808;9.968;2022-08-05T13:27:27;1.58;;;1.48;;
46505;SDS011;32220;49.808;9.968;2022-08-05T13:29:57;2.15;;;1.60;;
46505;SDS011;32220;49.808;9.968;2022-08-05T13:32:25;1.77;;;1.67;;
46505;SDS011;32220;49.808;9.968;2022-08-05T13:34:53;1.80;;;1.70;;
46505;SDS011;32220;49.808;9.968;2022-08-05T13:37:21;2.70;;;1.80;;
46505;SDS011;32220;49.808;9.968;2022-08-05T13:39:49;1.80;;;1.70;;
46505;SDS011;32220;49.808;9.968;2022-08-05T13:42:18;1.90;;;1.80;;
46505;SDS011;32220;49.808;9.968;2022-08-05T13:44:49;1.88;;;1.77;;
46505;SDS011;32220;49.808;9.968;2022-08-05T13:47:18;1.67;;;1.58;;
46505;SDS011;32220;49.808;9.968;2022-08-05T13:49:47;1.50;;;1.40;;
46505;SDS011;32220;49.808;9.968;2022-08-05T13:52:15;1.98;;;1.67;;
46505;SDS011;32220;49.808;9.968;2022-08-05T13:54:44;2.03;;;1.85;;
46505;SDS011;32220;49.808;9.968;2022-08-05T13:57:12;2.03;;;1.88;;
46505;SDS011;32220;49.808;9.968;2022-08-05T13:59:40;1.92;;;1.83;;
46505;SDS011;32220;49.808;9.968;2022-08-05T14:02:09;2.08;;;1.77;;
46505;SDS011;32220;49.808;9.968;2022-08-05T14:04:40;2.20;;;2.00;;
46505;SDS011;32220;49.808;9.968;2022-08-05T14:07:27;2.20;;;2.00;;
46505;SDS011;32220;49.808;9.968;2022-08-05T14:09:56;2.10;;;1.90;;
46505;SDS011;32220;49.808;9.968;2022-08-05T14:12:24;2.00;;;1.80;;
46505;SDS011;32220;49.808;9.968;2022-08-05T14:14:52;2.05;;;1.83;;
46505;SDS011;32220;49.808;9.968;2022-08-05T14:17:19;1.95;;;1.80;;
46505;SDS011;32220;49.808;9.968;2022-08-05T14:19:50;2.55;;;1.90;;
46505;SDS011;32220;49.808;9.968;2022-08-05T14:22:17;1.85;;;1.75;;
46505;SDS011;32220;49.808;9.968;2022-08-05T14:24:46;1.80;;;1.70;;
46505;SDS011;32220;49.808;9.968;2022-08-05T14:27:14;1.65;;;1.55;;
46505;SDS011;32220;49.808;9.968;2022-08-05T14:29:42;2.30;;;2.10;;
46505;SDS011;32220;49.808;9.968;2022-08-05T14:32:10;1.80;;;1.70;;
46505;SDS011;32220;49.808;9.968;2022-08-05T14:34:37;2.03;;;1.92;;
46505;SDS011;32220;49.808;9.968;2022-08-05T14:37:06;1.95;;;1.85;;
46505;SDS011;32220;49.808;9.968;2022-08-05T14:39:34;1.70;;;1.60;;
46505;SDS011;32220;49.808;9.968;2022-08-05T14:42:02;2.08;;;1.98;;
46505;SDS011;32220;49.808;9.968;2022-08-05T14:44:29;2.13;;;1.93;;
46505;SDS011;32220;49.808;9.968;2022-08-05T14:46:57;2.35;;;1.77;;
46505;SDS011;32220;49.808;9.968;2022-08-05T14:49:25;2.13;;;1.97;;
46505;SDS011;32220;49.808;9.968;2022-08-05T14:51:52;2.13;;;2.03;;
46505;SDS011;32220;49.808;9.968;2022-08-05T14:54:22;2.10;;;2.00;;
46505;SDS011;32220;49.808;9.968;2022-08-05T14:56:49;2.87;;;2.67;;
46505;SDS011;32220;49.808;9.968;2022-08-05T14:59:17;2.20;;;2.10;;
46505;SDS011;32220;49.808;9.968;2022-08-05T15:01:46;2.20;;;2.00;;
46505;SDS011;32220;49.808;9.968;2022-08-05T15:04:15;2.30;;;2.20;;
46505;SDS011;32220;49.808;9.968;2022-08-05T15:06:43;2.23;;;2.00;;
46505;SDS011;32220;49.808;9.968;2022-08-05T15:09:11;2.47;;;2.27;;
46505;SDS011;32220;49.808;9.968;2022-08-05T15:11:40;2.47;;;2.27;;
46505;SDS011;32220;49.808;9.968;2022-08-05T15:14:08;2.30;;;2.10;;